Weather observations for the past three days for
Alexandria, Chandler Field
Metric (Imperial)
Date Time (cdt) Wind (kph) Vis. (km) Weather Sky Cond. Temperature (ºC) Relative Humidity Wind Chill (°C) Heat Index (°C) Pressure Precipitation (cm)
Air Dwpt 6 hour altimeter (cm) sea level (mb) 1 hr 3 hr 6 hr
Max. Min.
04 04:53 NW 24 G 48 16.09 Fair CLR 10.6 2.2 56% 74.75 996.7
04 03:53 W 39 G 65 16.09 A Few Clouds and Breezy FEW095 15.6 2.2 41% 74.7 995.5
04 02:53 SW 33 G 44 16.09 Partly Cloudy and Breezy SCT120 14.4 0 38% 74.63 994.8
04 01:53 SW 28 16.09 Fair CLR 13.3 -1.7 36% 74.73 996.3
04 00:53 SW 24 G 43 16.09 Fair CLR 13.3 -1.1 19.4 13.3 37% 74.85 997.9
03 23:53 SW 28 16.09 Fair CLR 13.9 -1.1 36% 74.96 999.1
03 22:53 SW 24 16.09 Fair CLR 14.4 -0.6 36% 75.06 1000.6
03 21:53 SW 20 16.09 Fair CLR 15 0 36% 75.13 1001.8
03 20:53 SW 17 16.09 Fair CLR 14.4 0 38% 75.21 1002.9
03 19:53 W 22 16.09 Fair CLR 18.3 -1.1 27% 75.29 1003.7
03 18:53 W 22 16.09 Fair CLR 19.4 -2.2 21.1 17.2 23% 75.34 1004.4
03 17:53 W 22 16.09 Fair CLR 19.4 -2.2 23% 75.36 1005.1
03 16:53 W 24 G 37 16.09 Fair CLR 20 -2.2 22% 75.41 1005.7
03 15:53 W 30 G 39 16.09 Fair CLR 20 -2.8 21% 75.49 1006.7
03 14:53 NW 24 G 35 16.09 Fair CLR 18.9 -2.8 23% 75.59 1007.8
03 13:53 NW 17 16.09 Fair CLR 18.3 -3.9 22% 75.64 1008.6
03 12:53 N 19 16.09 Fair CLR 17.2 -3.9 17.8 8.3 24% 75.72 1009.5
03 11:53 N 26 G 43 16.09 Fair CLR 17.2 -4.4 23% 75.72 1009.9
03 10:53 N 24 16.09 Fair CLR 15.6 -5.6 23% 75.74 1010.0
03 09:53 NW 26 G 39 16.09 Fair CLR 14.4 0 38% 75.74 1009.8
03 08:53 NW 20 G 31 16.09 Fair CLR 12.8 1.7 47% 75.72 1009.7
03 07:53 N 20 G 35 16.09 Fair CLR 10.6 2.2 56% 75.67 1009.1
03 06:53 N 15 16.09 Fair CLR 8.3 2.2 11.7 6.7 66% 6 75.62 1008.4
03 05:53 N 17 16.09 Fair CLR 7.8 1.1 63% 5 75.57 1007.8
03 04:53 NW 13 16.09 Fair CLR 6.7 0.6 65% 4 75.54 1007.5
03 03:53 NW 20 16.09 Fair CLR 8.3 1.1 61% 5 75.51 1006.8
03 02:53 NW 13 16.09 Fair CLR 8.9 1.7 61% 7 75.44 1006.1
03 01:53 SW 13 16.09 Fair CLR 8.3 1.7 63% 6 75.41 1005.7
03 00:53 SW 13 16.09 Fair CLR 12.2 2.2 17.8 11.1 51% 75.44 1005.9
02 23:53 SW 17 16.09 Fair CLR 11.7 2.8 55% 75.44 1005.8
02 22:53 S 11 16.09 Fair CLR 12.8 1.7 47% 75.44 1006.0
02 21:53 SW 15 16.09 Mostly Cloudy BKN090 BKN110 15.6 -1.1 32% 75.51 1007.0
02 20:53 S 19 16.09 A Few Clouds FEW055 14.4 -1.1 35% 75.51 1007.2
02 19:53 S 20 16.09 Partly Cloudy SCT120 16.7 -1.7 29% 75.57 1007.9
02 18:53 SW 22 16.09 Mostly Cloudy BKN110 17.8 -1.7 20.6 16.7 27% 75.69 1009.6
02 17:53 W 17 16.09 Mostly Cloudy FEW075 BKN100 17.2 -2.2 27% 75.77 1010.9
02 16:53 W 26 G 46 16.09 Overcast FEW075 OVC090 17.2 -2.2 27% 75.84 1011.8
02 15:53 SW 26 16.09 A Few Clouds FEW100 18.9 -2.2 24% 75.84 1011.7
02 14:53 W 19 G 43 16.09 A Few Clouds FEW090 19.4 -2.2 23% 75.9 1012.4
02 13:53 W 24 G 39 16.09 A Few Clouds FEW100 20 -0.6 25% 75.95 1013.2
02 12:53 W 22 G 39 16.09 A Few Clouds FEW100 18.3 -0.6 18.3 3.3 28% 76.05 1014.3
02 11:53 SW 28 G 43 16.09 A Few Clouds FEW100 16.7 -0.6 31% 76.1 1015.2
02 10:53 SW 24 16.09 Fair CLR 14.4 -1.1 35% 76.15 1016.0
02 09:53 SW 17 16.09 Fair CLR 11.1 -1.7 41% 76.23 1017.0
02 08:53 SW 24 16.09 Fair CLR 8.9 -2.2 46% 6 76.28 1018.0
02 07:53 SW 15 16.09 A Few Clouds FEW090 5 -1.7 62% 2 76.33 1018.5
02 06:53 SW 11 16.09 Mostly Cloudy BKN090 2.8 -1.7 3.3 0 73% 0 76.33 1018.7
02 05:53 SW 13 16.09 Mostly Cloudy BKN090 2.2 -3.3 67% -1 76.35 1018.9
02 04:53 SW 11 16.09 Fair CLR 1.7 -3.9 67% -1 76.38 1019.4
02 03:53 SW 11 16.09 Fair CLR 1.1 -3.3 73% -2 76.38 1019.4
02 02:53 W 6 16.09 Fair CLR 1.1 -2.8 76% 76.38 1019.6
02 01:53 SW 9 16.09 Fair CLR 1.7 -1.7 78% -1 76.4 1020.0
02 00:53 Calm 16.09 Fair CLR 3.9 -2.8 10.6 2.8 62% 76.43 1020.0
01 23:53 SW 6 16.09 Fair CLR 3.3 -3.3 62% 76.43 1020.3
01 22:53 W 6 16.09 Fair CLR 5.6 -5 47% 76.45 1020.5
01 21:53 NW 6 16.09 Fair CLR 6.7 -5.6 41% 76.45 1020.2
01 20:53 NW 9 16.09 Fair CLR 6.7 -6.1 40% 5 76.43 1020.2
01 19:53 NW 13 16.09 Fair CLR 9.4 -7.2 31% 8 76.4 1019.8
01 18:53 NW 15 16.09 Fair CLR 10.6 -7.8 12.2 8.9 27% 76.4 1019.8
01 17:53 NW 13 G 30 16.09 Mostly Cloudy BKN070 11.1 -7.8 26% 76.4 1019.7
01 16:53 Vrbl 6 16.09 A Few Clouds FEW070 11.1 -7.2 27% 76.4 1019.9
01 15:53 Calm 16.09 Fair CLR 11.1 -7.8 26% 76.43 1020.2
01 14:53 N 13 16.09 Fair CLR 11.1 -7.2 27% 76.45 1020.5
01 13:53 N 19 16.09 A Few Clouds FEW065 10.6 -6.7 29% 76.48 1020.7
01 12:53 N 17 G 37 16.09 A Few Clouds FEW060 9.4 -6.7 9.4 -1.1 32% 7 76.48 1021.0
01 11:53 NE 15 16.09 Fair CLR 7.8 -6.7 35% 6 76.5 1021.2
01 10:53 N 17 16.09 Fair CLR 7.2 -6.7 37% 5 76.5 1021.3
01 09:53 Vrbl 9 16.09 Fair CLR 6.1 -5.6 43% 4 76.5 1021.2
01 08:53 NE 7 16.09 Fair CLR 4.4 -3.9 55% 3 76.5 1021.1
01 07:53 NE 7 16.09 Fair CLR 2.8 -3.3 65% 1 76.48 1020.7
01 06:53 Calm 16.09 Fair CLR -1.1 -3.9 2.2 -1.7 82% 76.43 1020.3
01 05:53 NE 7 16.09 Fair CLR -0.6 -4.4 76% -3 76.4 1019.9
Date Time (cdt) Wind (kph) Vis. (km) Weather Sky Cond. Air Dwpt Max. Min. Relative Humidity Wind Chill (°C) Heat Index (°C) altimeter (cm) sea level (mb) 1 hr 3 hr 6 hr
6 hour
Temperature (ºC) Pressure Precipitation (cm)